Latest Weather Observations for McArthur River Mine

IDD60801

Issued at 3:51 am CST Tuesday 4 August 2020 (issued every 10 minutes, with the page automatically refreshed every 10 minutes)

About weather observations | Map of weather stations | Latest weather observations for NT | Other Formats
Station Details ID: 014704 Name: MCARTHUR RIVER MINE AIRPORT Lat: -16.44 Lon: 136.08 Height: 40.0 m
Data from the previous 72 hours. | See also: Recent months at McArthur River Mine
Date/Time
CST
Temp
°C
App
Temp
°C
Dew
Point
°C
Rel
Hum
%
Delta-T
°C
Wind Press
QNH
hPa
Press
MSL
hPa
Rain since
9am
mm
Dir  Spd
km/h
Gust
km/h
Spd
kts
Gust
kts
04/03:30am 19.0 21.5 17.3 90 1.0 CALM 0 0 0 0 1012.7 1012.6 0.0
04/03:00am 19.2 21.8 17.5 90 1.0 CALM 0 0 0 0 1012.9 1012.8 0.0
04/02:30am 19.7 22.4 17.8 89 1.2 CALM 0 0 0 0 1012.9 1012.8 0.0
04/02:00am 20.5 23.6 18.6 89 1.2 CALM 0 4 0 2 1013.2 1013.1 0.0
04/01:30am 21.1 23.1 18.7 86 1.5 NE 6 9 3 5 1013.3 1013.2 0.0
04/01:20am 21.1 23.0 18.5 85 1.6 ENE 6 7 3 4 1013.4 1013.3 0.0
04/01:00am 21.4 23.3 19.0 86 1.5 NE 7 13 4 7 1013.4 1013.3 0.0
04/12:39am 21.4 23.4 19.1 87 1.5 NE 7 11 4 6 1013.5 1013.4 0.0
04/12:30am 21.5 23.5 19.1 86 1.5 NE 7 11 4 6 1013.4 1013.3 0.0
04/12:00am 21.5 23.5 19.2 87 1.5 ENE 7 9 4 5 1013.5 1013.4 0.0
 
Date/Time
CST
Temp
°C
App
Temp
°C
Dew
Point
°C
Rel
Hum
%
Delta-T
°C
Wind Press
QNH
hPa
Press
MSL
hPa
Rain since
9am
mm
Dir  Spd
km/h
Gust
km/h
Spd
kts
Gust
kts
03/11:50pm 21.5 23.7 19.2 87 1.5 NE 6 9 3 5 1013.6 1013.5 0.0
03/11:30pm 21.7 23.4 19.3 86 1.5 NE 9 13 5 7 1013.5 1013.4 0.0
03/11:22pm 21.8 23.4 19.2 85 1.6 NNE 9 15 5 8 1013.5 1013.4 0.0
03/11:00pm 21.9 23.5 19.1 84 1.8 NNE 9 13 5 7 1013.7 1013.6 0.0
03/10:49pm 22.0 23.6 19.2 84 1.8 NNE 9 15 5 8 1013.7 1013.6 0.0
03/10:47pm 22.0 23.5 19.0 83 1.9 NNE 9 15 5 8 1013.7 1013.6 0.0
03/10:30pm 22.2 23.4 19.0 82 2.0 NE 11 17 6 9 1013.8 1013.7 0.0
03/10:00pm 22.5 23.3 19.1 81 2.2 NE 13 20 7 11 1013.7 1013.6 0.0
03/09:59pm 22.5 23.2 18.9 80 2.3 NE 13 20 7 11 1013.7 1013.6 0.0
03/09:30pm 22.8 23.3 18.3 76 2.8 NE 13 20 7 11 1013.5 1013.4 0.0
03/09:00pm 23.3 23.0 17.3 69 3.7 NE 15 20 8 11 1013.1 1013.0 0.0
03/08:30pm 24.0 23.6 15.2 58 5.3 NNE 11 17 6 9 1012.9 1012.8 0.0
03/08:00pm 24.9 23.0 13.1 48 6.9 NNE 15 24 8 13 1012.4 1012.3 0.0
03/07:30pm 25.9 23.6 10.5 38 8.6 NNE 13 20 7 11 1012.0 1011.9 0.0
03/07:00pm 26.5 24.1 10.2 36 9.1 NNE 13 19 7 10 1011.5 1011.4 0.0
03/06:30pm 27.2 23.9 9.5 33 9.8 NE 17 22 9 12 1011.1 1011.0 0.0
03/06:00pm 28.2 24.9 9.5 31 10.4 NE 17 28 9 15 1010.7 1010.6 0.0
03/05:30pm 30.1 27.4 9.1 27 11.7 NE 13 20 7 11 1010.3 1010.1 0.0
03/05:00pm 31.4 29.0 7.1 22 13.2 NE 9 15 5 8 1010.1 1009.9 0.0
03/04:30pm 31.7 28.8 6.7 21 13.5 NE 11 19 6 10 1010.0 1009.8 0.0
03/04:00pm 31.4 28.9 6.5 21 13.4 NNW 9 13 5 7 1010.1 1009.9 0.0
03/03:30pm 31.6 29.5 6.6 21 13.5 WSW 7 11 4 6 1010.3 1010.1 0.0
03/03:00pm 31.7 29.4 7.4 22 13.3 E 9 19 5 10 1010.4 1010.2 0.0
03/02:30pm 31.1 27.9 6.9 22 13.1 NNE 13 20 7 11 1011.0 1010.9 0.0
03/02:00pm 30.4 28.4 7.0 23 12.6 NE 7 13 4 7 1011.5 1011.4 0.0
03/01:30pm 30.4 28.0 7.0 23 12.6 NE 9 17 5 9 1011.8 1011.7 0.0
03/01:00pm 30.8 27.7 7.3 23 12.8 ESE 13 19 7 10 1012.3 1012.2 0.0
03/12:30pm 30.4 27.5 6.3 22 12.9 E 11 19 6 10 1013.0 1012.9 0.0
03/12:00pm 30.3 27.9 6.9 23 12.6 E 9 19 5 10 1013.8 1013.7 0.0
03/11:30am 29.2 26.6 9.3 29 11.1 ESE 13 22 7 12 1014.2 1014.1 0.0
03/11:00am 28.5 26.3 10.7 33 10.1 E 13 22 7 12 1014.8 1014.7 0.0
03/10:30am 27.4 26.5 11.4 37 9.1 ENE 7 13 4 7 1015.3 1015.2 0.0
03/10:00am 24.8 24.7 13.4 49 6.7 SSW 6 7 3 4 1015.4 1015.3 0.0
03/09:30am 22.8 23.4 15.9 65 4.2 S 7 11 4 6 1015.6 1015.5 0.0
03/09:00am 21.4 23.2 15.5 69 3.5 CALM 0 7 0 4 1015.6 1015.5 0.0
03/08:30am 18.4 20.1 15.1 81 1.9 CALM 0 7 0 4 1015.5 1015.4 0.0
03/08:00am 16.4 17.1 14.6 89 1.0 W 4 7 2 4 1015.3 1015.2 0.0
03/07:30am 14.6 15.5 13.0 90 0.9 CALM 0 0 0 0 1015.1 1015.0 0.0
03/07:00am 14.1 15.0 13.0 93 0.6 CALM 0 0 0 0 1014.8 1014.7 0.0
03/06:30am 14.1 15.1 13.1 94 0.6 CALM 0 4 0 2 1014.6 1014.5 0.0
03/06:00am 14.0 13.7 12.7 92 0.7 WNW 6 7 3 4 1014.5 1014.4 0.0
03/05:30am 13.9 13.4 12.6 92 0.7 WSW 7 9 4 5 1014.5 1014.4 0.0
03/05:00am 14.1 14.9 12.7 91 0.8 CALM 0 0 0 0 1014.2 1014.1 0.0
03/04:30am 14.3 14.8 12.7 90 0.9 S 2 7 1 4 1014.0 1013.9 0.0
03/04:00am 15.0 15.3 13.5 91 0.8 S 4 7 2 4 1013.9 1013.8 0.0
03/03:30am 14.7 14.6 13.2 91 0.8 SW 6 6 3 3 1013.8 1013.7 0.0
03/03:00am 15.1 16.2 13.5 90 0.9 CALM 0 0 0 0 1014.0 1013.9 0.0
03/02:30am 15.5 16.6 13.5 88 1.1 CALM 0 0 0 0 1014.2 1014.1 0.0
03/02:00am 16.1 17.5 14.3 89 1.0 CALM 0 0 0 0 1014.4 1014.3 0.0
03/01:30am 16.5 17.8 14.0 85 1.4 CALM 0 0 0 0 1014.4 1014.3 0.0
03/01:00am 17.3 18.7 14.4 83 1.7 CALM 0 0 0 0 1014.7 1014.6 0.0
03/12:30am 18.1 19.7 14.8 81 1.9 CALM 0 0 0 0 1014.9 1014.8 0.0
03/12:00am 18.6 19.3 15.5 82 1.8 SSW 6 7 3 4 1015.0 1014.9 0.0
 
Date/Time
CST
Temp
°C
App
Temp
°C
Dew
Point
°C
Rel
Hum
%
Delta-T
°C
Wind Press
QNH
hPa
Press
MSL
hPa
Rain since
9am
mm
Dir  Spd
km/h
Gust
km/h
Spd
kts
Gust
kts
02/11:30pm 19.0 20.7 15.3 79 2.2 CALM 0 0 0 0 1014.8 1014.7 0.0
02/11:00pm 19.8 20.2 15.4 76 2.6 N 7 9 4 5 1014.7 1014.6 0.0
02/10:30pm 20.8 21.5 15.6 72 3.1 N 6 7 3 4 1014.7 1014.6 0.0
02/10:00pm 21.8 21.3 15.9 69 3.5 NE 13 20 7 11 1014.7 1014.6 0.0
02/09:30pm 22.2 21.0 15.1 64 4.2 NE 15 22 8 12 1014.6 1014.5 0.0
02/09:00pm 22.9 21.0 13.1 54 5.6 NE 15 20 8 11 1014.4 1014.3 0.0
02/08:30pm 23.6 21.3 11.6 47 6.8 NE 15 24 8 13 1014.2 1014.1 0.0
02/08:00pm 24.3 22.2 11.3 44 7.3 NNE 13 20 7 11 1013.9 1013.8 0.0
02/07:30pm 25.1 22.8 9.0 36 8.7 NNE 11 17 6 9 1013.5 1013.4 0.0
02/07:00pm 26.0 23.4 7.6 31 9.8 NNE 11 20 6 11 1013.2 1013.1 0.0
02/06:30pm 27.0 23.3 6.4 27 10.8 NE 15 26 8 14 1012.8 1012.7 0.0
02/06:00pm 28.4 25.0 5.9 24 11.8 NNE 13 20 7 11 1012.4 1012.3 0.0
02/05:30pm 30.0 26.6 3.9 19 13.4 NNE 11 17 6 9 1012.2 1012.1 0.0
02/05:00pm 30.7 28.0 2.9 17 14.0 NE 6 13 3 7 1012.0 1011.9 0.0
02/04:30pm 30.9 26.9 3.0 17 14.1 NE 13 19 7 10 1012.0 1011.9 0.0
02/04:00pm 31.2 28.0 3.3 17 14.2 E 9 22 5 12 1011.9 1011.8 0.0
02/03:30pm 30.6 27.0 2.8 17 14.0 ENE 11 20 6 11 1012.1 1012.0 0.0
02/03:00pm 30.8 26.8 3.0 17 14.1 NE 13 20 7 11 1012.3 1012.2 0.0
02/02:30pm 30.6 27.1 3.6 18 13.8 N 11 19 6 10 1012.6 1012.5 0.0
02/02:00pm 30.7 27.2 3.7 18 13.8 ENE 11 22 6 12 1013.1 1013.0 0.0
02/01:30pm 30.4 26.5 3.4 18 13.7 E 13 28 7 15 1013.5 1013.4 0.0
02/01:00pm 29.9 25.6 3.0 18 13.5 E 15 30 8 16 1014.0 1013.9 0.0
02/12:30pm 29.7 24.6 2.9 18 13.4 ESE 19 28 10 15 1014.7 1014.6 0.0
02/12:00pm 29.3 24.6 0.9 16 13.7 ENE 15 28 8 15 1015.3 1015.2 0.0
02/11:30am 28.8 23.1 0.5 16 13.5 E 20 30 11 16 1015.8 1015.7 0.0
02/11:00am 28.2 22.6 0.9 17 13.1 E 20 30 11 16 1016.4 1016.3 0.0
02/10:30am 27.5 23.2 1.1 18 12.6 E 13 22 7 12 1016.8 1016.7 0.0
02/10:00am 25.2 21.4 3.8 25 10.6 SE 13 19 7 10 1016.7 1016.6 0.0
02/09:30am 23.4 22.1 9.8 42 7.4 SE 7 13 4 7 1016.8 1016.7 0.0
02/09:00am 20.5 19.2 10.0 51 5.7 S 7 11 4 6 1016.9 1016.8 0.0
02/08:30am 17.8 17.6 13.7 77 2.3 SW 7 11 4 6 1017.0 1016.9 0.0
02/08:00am 15.1 15.5 13.6 91 0.8 SSW 4 9 2 5 1016.9 1016.8 0.0
02/07:30am 13.4 12.9 12.8 96 0.3 SW 7 9 4 5 1016.7 1016.6 0.0
02/07:00am 13.0 12.5 12.5 97 0.3 SSW 7 9 4 5 1016.5 1016.4 0.0
02/06:44am 12.8 12.2 12.2 96 0.3 SW 7 9 4 5 1016.3 1016.2 0.0
02/06:30am 12.6 11.9 12.0 96 0.3 SW 7 7 4 4 1016.3 1016.2 0.0
02/06:09am 12.7 13.4 12.1 96 0.3 CALM 0 0 0 0 1016.1 1016.0 0.0
02/06:05am 12.7 13.4 12.1 96 0.3 CALM 0 2 0 1 1016.1 1016.0 0.0
02/06:00am 12.7 13.0 12.1 96 0.3 SW 2 6 1 3 1016.0 1015.9 0.0
02/05:57am 12.6 12.5 12.0 96 0.3 SW 4 6 2 3 1016.0 1015.9 0.0
02/05:43am 12.7 12.5 11.9 95 0.4 S 4 7 2 4 1015.8 1015.7 0.0
02/05:40am 12.8 12.3 11.9 94 0.5 S 6 7 3 4 1015.8 1015.7 0.0
02/05:30am 13.0 13.7 12.1 94 0.5 CALM 0 7 0 4 1015.7 1015.6 0.0
02/05:00am 13.1 13.8 12.3 95 0.4 CALM 0 0 0 0 1015.4 1015.3 0.0
02/04:30am 13.3 14.1 12.5 95 0.4 CALM 0 0 0 0 1015.7 1015.6 0.0
02/04:00am 13.4 14.2 12.6 95 0.4 CALM 0 0 0 0 1015.9 1015.8 0.0
02/03:30am 13.9 14.9 13.3 96 0.3 CALM 0 0 0 0 1016.0 1015.9 0.0
02/03:00am 14.2 14.1 13.4 95 0.4 W 6 7 3 4 1015.9 1015.8 0.0
02/02:30am 14.5 14.8 13.5 94 0.6 W 4 7 2 4 1015.9 1015.8 0.0
02/02:00am 15.3 14.8 13.7 90 0.9 SW 9 11 5 6 1016.1 1016.0 0.0
02/01:30am 16.0 15.6 14.2 89 1.0 WSW 9 11 5 6 1016.5 1016.4 0.0
02/01:00am 17.0 17.8 14.8 87 1.3 NNW 4 7 2 4 1016.4 1016.3 0.0
02/12:30am 18.0 18.5 15.1 83 1.7 NNE 6 7 3 4 1016.2 1016.1 0.0
02/12:00am 18.9 19.5 15.4 80 2.1 NNE 6 11 3 6 1016.4 1016.3 0.0
 
Date/Time
CST
Temp
°C
App
Temp
°C
Dew
Point
°C
Rel
Hum
%
Delta-T
°C
Wind Press
QNH
hPa
Press
MSL
hPa
Rain since
9am
mm
Dir  Spd
km/h
Gust
km/h
Spd
kts
Gust
kts
01/11:30pm 19.3 19.8 15.6 79 2.2 NE 7 9 4 5 1016.5 1016.4 0.0
01/11:00pm 20.1 20.3 15.7 76 2.6 NE 9 11 5 6 1016.5 1016.4 0.0
01/10:30pm 20.7 20.9 15.7 73 3.0 NE 9 13 5 7 1016.6 1016.5 0.0
01/10:00pm 21.2 21.4 15.7 71 3.3 NE 9 13 5 7 1016.8 1016.7 0.0
01/09:30pm 21.3 21.8 15.6 70 3.4 NE 7 9 4 5 1016.8 1016.7 0.0
01/09:00pm 22.1 21.9 14.7 63 4.4 NE 9 13 5 7 1016.6 1016.5 0.0
01/08:30pm 23.0 21.9 13.2 54 5.7 NE 11 15 6 8 1016.4 1016.3 0.0
01/08:00pm 23.7 22.1 12.7 50 6.3 NE 13 20 7 11 1016.0 1015.9 0.0
01/07:30pm 24.2 22.8 13.4 51 6.3 NE 13 20 7 11 1015.6 1015.5 0.0
01/07:00pm 24.7 23.2 14.2 52 6.2 NNE 15 22 8 12 1015.0 1014.9 0.0
01/06:30pm 25.3 22.8 14.1 50 6.6 NE 20 32 11 17 1014.5 1014.4 0.0
01/06:00pm 27.7 23.7 0.5 17 12.9 ENE 11 17 6 9 1013.9 1013.8 0.0
01/05:30pm 29.1 25.4 -3.2 12 14.5 ENE 7 13 4 7 1013.7 1013.6 0.0
01/05:00pm 29.7 25.0 -5.1 10 15.2 E 11 19 6 10 1013.7 1013.6 0.0
01/04:30pm 30.0 24.9 -4.9 10 15.3 ENE 13 22 7 12 1013.5 1013.4 0.0
01/04:00pm 30.2 25.4 -6.1 9 15.6 ESE 11 20 6 11 1013.5 1013.4 0.0
01/03:30pm 31.0 26.6 -5.5 9 16.0 E 9 28 5 15 1013.5 1013.4 0.0
01/03:00pm 30.0 25.2 -6.3 9 15.5 E 11 20 6 11 1013.8 1013.7 0.0
01/02:30pm 30.5 25.7 -5.9 9 15.8 ENE 11 20 6 11 1014.1 1014.0 0.0
01/02:00pm 30.0 24.4 -6.3 9 15.6 E 15 28 8 15 1014.5 1014.4 0.0
01/01:30pm 29.8 24.2 -6.4 9 15.4 ENE 15 24 8 13 1015.1 1015.0 0.0
01/01:00pm 28.8 22.7 -7.2 9 15.0 ESE 17 28 9 15 1015.5 1015.4 0.0
01/12:30pm 28.9 23.4 -5.7 10 14.8 ENE 15 24 8 13 1016.2 1016.1 0.0
01/12:00pm 28.8 23.6 -5.8 10 14.8 ENE 13 24 7 13 1016.7 1016.6 0.0
01/11:30am 27.9 22.4 -5.2 11 14.2 ESE 15 28 8 15 1017.1 1017.0 0.0
01/11:00am 27.6 21.7 -5.5 11 14.1 E 17 26 9 14 1017.5 1017.4 0.0
01/10:30am 26.4 20.2 -5.3 12 13.4 ESE 19 28 10 15 1017.8 1017.7 0.0
01/10:00am 25.2 18.9 -4.2 14 12.5 ESE 20 30 11 16 1017.9 1017.8 0.0
01/09:30am 23.8 18.9 -3.5 16 11.6 ESE 13 22 7 12 1017.9 1017.8 0.0
01/09:00am 19.6 17.3 2.9 33 7.8 SSE 4 11 2 6 1017.9 1017.8 0.0
01/08:30am 15.6 14.7 6.1 53 4.6 CALM 0 0 0 0 1017.8 1017.7 0.0
01/08:00am 12.2 11.8 8.3 77 1.9 CALM 0 0 0 0 1017.5 1017.4 0.0
01/07:30am 9.5 9.1 8.1 91 0.7 CALM 0 0 0 0 1017.3 1017.2 0.0
01/07:00am 8.2 7.5 7.1 93 0.5 CALM 0 0 0 0 1016.9 1016.8 0.0
01/06:30am 8.7 8.1 7.5 92 0.6 CALM 0 0 0 0 1016.6 1016.5 0.0
01/06:00am 9.1 7.5 7.9 92 0.6 SW 6 7 3 4 1016.3 1016.2 0.0
01/05:30am 9.3 8.7 7.4 88 0.9 CALM 0 0 0 0 1016.2 1016.1 0.0
01/05:00am 9.6 8.7 7.7 88 0.9 WNW 2 6 1 3 1016.1 1016.0 0.0
01/04:30am 10.4 9.0 8.8 90 0.8 NW 6 7 3 4 1016.0 1015.9 0.0
01/04:00am 10.9 9.5 8.8 87 1.0 SW 6 6 3 3 1015.7 1015.6 0.0

Other formats

Comma delimited format used in spreadsheet applications
http://www.bom.gov.au/fwo/IDD60801/IDD60801.94239.axf

JavaScript Object Notation format (JSON) in row-major order
http://www.bom.gov.au/fwo/IDD60801/IDD60801.94239.json

Data quality

Most of these data are generated automatically and are frequently updated. Quality checks on data are not normally performed. It is possible for incorrect values to appear. Refer to information at About Latest Weather Observations and please check the disclaimer before using these data.